Time;durP1;ratioP1;P1;durP2;ratioP2;P2;SDS_P1;SDS_P2;PMS_P1;PMS_P2;Temp;Humidity;BMP_temperature;BMP_pressure;BME280_temperature;BME280_humidity;BME280_pressure;Samples;Min_cycle;Max_cycle;Signal;HPM_P1;HPM_P2
2022/01/21 00:00:15;;;;;;;18.37;2.60;;;1.30;99.90;;;;;;5057325;28;20044;-77
2022/01/21 00:02:41;;;;;;;22.90;2.60;;;1.30;99.90;;;;;;5057485;28;20036;-77
2022/01/21 00:05:08;;;;;;;19.70;2.20;;;1.30;99.90;;;;;;5039662;28;20816;-76
2022/01/21 00:07:34;;;;;;;15.80;2.47;;;1.30;99.90;;;;;;5037116;28;20114;-77
2022/01/21 00:10:01;;;;;;;15.23;2.50;;;1.40;99.90;;;;;;5036169;28;20068;-76
2022/01/21 00:12:30;;;;;;;29.40;3.57;;;1.30;99.90;;;;;;5036960;28;20080;-77
2022/01/21 00:14:56;;;;;;;16.87;2.83;;;1.30;99.90;;;;;;5042111;28;21592;-77
2022/01/21 00:17:23;;;;;;;15.60;2.80;;;1.40;99.90;;;;;;5044128;28;20299;-76
2022/01/21 00:19:52;;;;;;;18.73;2.53;;;1.40;99.90;;;;;;5038918;28;20135;-78
2022/01/21 00:30:33;;;;;;;23.75;2.83;;;1.50;99.90;;;;;;5041246;28;20329;-77
2022/01/21 00:32:59;;;;;;;19.57;2.73;;;1.60;99.90;;;;;;5045791;28;20086;-76
2022/01/21 00:35:24;;;;;;;16.60;2.50;;;1.70;99.90;;;;;;5036937;28;20094;-77
2022/01/21 00:37:50;;;;;;;21.43;3.20;;;1.70;99.90;;;;;;5034544;28;20056;-76
2022/01/21 00:40:22;;;;;;;17.53;2.60;;;1.70;99.90;;;;;;5033127;28;20083;-76
2022/01/21 00:43:10;;;;;;;20.30;2.57;;;1.80;99.90;;;;;;5034916;28;20052;-77
2022/01/21 00:45:36;;;;;;;22.57;2.73;;;1.80;99.90;;;;;;5039068;28;20392;-77
2022/01/21 00:48:02;;;;;;;17.50;2.40;;;1.80;99.90;;;;;;5054961;28;20040;-76
2022/01/21 00:50:30;;;;;;;20.90;2.53;;;1.80;99.90;;;;;;5052972;28;20795;-76
2022/01/21 00:52:56;;;;;;;20.20;2.50;;;1.80;99.90;;;;;;5059692;28;20450;-77
2022/01/21 00:55:23;;;;;;;18.43;2.53;;;1.80;99.90;;;;;;5038059;28;20144;-77
2022/01/21 00:57:48;;;;;;;18.57;2.20;;;1.80;99.90;;;;;;5038900;28;20076;-76
2022/01/21 01:00:15;;;;;;;21.97;2.77;;;1.90;99.90;;;;;;5038822;28;20532;-77
2022/01/21 01:02:42;;;;;;;25.20;2.43;;;1.90;99.90;;;;;;5043053;28;20395;-77
2022/01/21 01:05:11;;;;;;;18.73;2.23;;;1.90;99.90;;;;;;5037942;28;20352;-77
2022/01/21 01:07:38;;;;;;;16.83;2.97;;;1.90;99.90;;;;;;5019269;28;20045;-76
2022/01/21 01:10:05;;;;;;;20.23;2.57;;;1.90;99.90;;;;;;5042490;28;20033;-76
2022/01/21 01:20:47;;;;;;;10.83;2.13;;;1.80;99.90;;;;;;5015702;28;20037;-76
2022/01/21 01:23:29;;;;;;;18.17;1.90;;;1.90;99.90;;;;;;5060198;28;20489;-76
2022/01/21 01:28:41;;;;;;;14.63;1.77;;;1.90;99.90;;;;;;5038986;28;20432;-76
2022/01/21 01:31:06;;;;;;;22.10;2.10;;;1.90;99.90;;;;;;5037724;28;20483;-77
2022/01/21 01:33:38;;;;;;;17.33;2.63;;;1.90;99.90;;;;;;5020403;28;20124;-77
2022/01/21 01:36:06;;;;;;;16.63;2.30;;;1.90;99.90;;;;;;5025223;28;20517;-77
2022/01/21 01:41:04;;;;;;;15.20;2.50;;;2.00;99.90;;;;;;5053813;28;20102;-76
2022/01/21 01:51:29;;;;;;;17.77;2.53;;;2.00;99.90;;;;;;5066811;28;20124;-76
2022/01/21 01:54:01;;;;;;;14.80;2.10;;;2.00;99.90;;;;;;5060400;28;20417;-77
2022/01/21 01:56:32;;;;;;;16.10;1.90;;;2.10;99.90;;;;;;5020328;28;20045;-77
2022/01/21 01:58:59;;;;;;;17.53;2.20;;;2.10;99.90;;;;;;5042414;28;20318;-77
2022/01/21 02:01:26;;;;;;;15.77;2.10;;;2.10;99.90;;;;;;5058617;28;20044;-77
2022/01/21 02:03:52;;;;;;;14.20;2.40;;;2.10;99.90;;;;;;5063143;28;20314;-76
2022/01/21 02:06:19;;;;;;;13.97;1.90;;;2.10;99.90;;;;;;5041361;28;20653;-76
2022/01/21 02:08:44;;;;;;;15.17;2.17;;;2.10;99.90;;;;;;5043989;28;20425;-76
2022/01/21 02:11:10;;;;;;;9.83;1.50;;;2.20;99.90;;;;;;5031658;28;20049;-77
2022/01/21 02:13:42;;;;;;;11.47;2.43;;;2.20;99.90;;;;;;5049400;28;20126;-76
2022/01/21 02:16:17;;;;;;;12.30;1.63;;;2.20;99.90;;;;;;5041670;28;20037;-77
2022/01/21 02:21:35;;;;;;;12.40;1.70;;;2.20;99.90;;;;;;5039701;28;20314;-77
2022/01/21 02:24:05;;;;;;;12.10;1.90;;;2.20;99.90;;;;;;5041528;28;20395;-77
2022/01/21 02:26:30;;;;;;;12.23;1.70;;;2.10;99.90;;;;;;5040380;28;20036;-77
2022/01/21 02:28:59;;;;;;;11.37;1.40;;;2.00;99.90;;;;;;5038890;28;20048;-76
2022/01/21 02:31:25;;;;;;;13.57;2.20;;;2.00;99.90;;;;;;5044374;28;20726;-77
2022/01/21 02:33:51;;;;;;;17.00;1.63;;;1.90;99.90;;;;;;5060252;28;20094;-77
2022/01/21 02:36:17;;;;;;;12.40;1.70;;;1.90;99.90;;;;;;5041826;28;20457;-77
2022/01/21 02:38:44;;;;;;;10.53;1.70;;;2.00;99.90;;;;;;5022641;28;20041;-76
2022/01/21 02:41:11;;;;;;;18.50;2.40;;;2.00;99.90;;;;;;5038957;28;20505;-77
2022/01/21 02:43:36;;;;;;;13.43;1.60;;;2.10;99.90;;;;;;5041325;28;20309;-77
2022/01/21 02:46:06;;;;;;;13.93;1.70;;;2.10;99.90;;;;;;5033440;28;20526;-77
2022/01/21 02:48:36;;;;;;;13.40;1.80;;;2.20;99.90;;;;;;5041263;28;20137;-77
2022/01/21 02:51:02;;;;;;;9.37;1.87;;;2.30;99.90;;;;;;5041135;28;20524;-77
2022/01/21 02:53:39;;;;;;;7.10;1.30;;;2.30;99.90;;;;;;5030953;28;20124;-78
2022/01/21 02:56:07;;;;;;;12.97;1.20;;;2.30;99.90;;;;;;5025739;28;20103;-77
2022/01/21 02:58:33;;;;;;;9.03;1.17;;;2.30;99.90;;;;;;5036415;28;20136;-78
2022/01/21 03:00:59;;;;;;;14.57;1.40;;;2.30;99.90;;;;;;5029379;28;20033;-77
2022/01/21 03:03:25;;;;;;;6.00;1.10;;;2.20;99.90;;;;;;5025474;28;20449;-77
2022/01/21 03:05:51;;;;;;;14.37;1.40;;;2.20;99.90;;;;;;5025908;28;20078;-77
2022/01/21 03:08:17;;;;;;;11.53;1.57;;;2.20;99.90;;;;;;5026398;28;20135;-77
2022/01/21 03:10:43;;;;;;;12.77;1.47;;;2.10;99.90;;;;;;5029728;28;20052;-77
2022/01/21 03:13:11;;;;;;;11.27;1.43;;;2.00;99.90;;;;;;5053826;28;20065;-77
2022/01/21 03:15:37;;;;;;;9.23;1.10;;;2.00;99.90;;;;;;5021481;28;20581;-77
2022/01/21 03:18:03;;;;;;;11.40;1.53;;;2.00;99.90;;;;;;5025382;28;20132;-77
2022/01/21 03:20:28;;;;;;;7.33;1.00;;;1.90;99.90;;;;;;5040259;28;20551;-77
2022/01/21 03:22:54;;;;;;;14.23;1.70;;;2.00;99.90;;;;;;5024060;28;20123;-77
2022/01/21 03:25:20;;;;;;;10.80;1.27;;;2.00;99.90;;;;;;5044624;28;20041;-78
2022/01/21 03:27:45;;;;;;;12.93;1.80;;;2.00;99.90;;;;;;5039141;28;20041;-78
2022/01/21 03:30:13;;;;;;;9.67;1.47;;;1.90;99.90;;;;;;5024254;28;20044;-77
2022/01/21 03:32:44;;;;;;;11.97;2.07;;;2.00;99.90;;;;;;5033579;28;20041;-77
2022/01/21 03:35:12;;;;;;;10.33;1.80;;;2.00;99.90;;;;;;5035364;28;20071;-77
2022/01/21 03:37:38;;;;;;;11.10;1.70;;;2.10;99.90;;;;;;5036694;28;20068;-77
2022/01/21 03:40:05;;;;;;;13.23;1.53;;;2.10;99.90;;;;;;5043003;28;20437;-77
2022/01/21 03:42:31;;;;;;;9.17;1.50;;;2.10;99.90;;;;;;5028437;28;20037;-77
2022/01/21 03:44:57;;;;;;;12.87;1.97;;;2.10;99.90;;;;;;5060301;28;20087;-79
2022/01/21 03:47:24;;;;;;;14.90;1.40;;;2.20;99.90;;;;;;5024141;28;20148;-76
2022/01/21 03:49:56;;;;;;;13.00;1.87;;;2.20;99.90;;;;;;5036628;28;20128;-78
2022/01/21 03:52:22;;;;;;;12.77;1.70;;;2.20;99.90;;;;;;5060390;28;20067;-79
2022/01/21 03:54:48;;;;;;;13.17;1.93;;;2.10;99.90;;;;;;5056842;28;20064;-78
2022/01/21 03:57:14;;;;;;;7.90;1.47;;;2.10;99.90;;;;;;5026323;28;20136;-77
2022/01/21 03:59:40;;;;;;;9.80;1.50;;;2.10;99.90;;;;;;5025493;28;20102;-77
2022/01/21 04:02:06;;;;;;;10.83;1.17;;;2.10;99.90;;;;;;5040197;28;20844;-77
2022/01/21 04:04:34;;;;;;;9.73;1.30;;;2.00;99.90;;;;;;5041514;28;20045;-77
2022/01/21 04:07:03;;;;;;;7.63;1.03;;;2.10;99.90;;;;;;5028894;28;20728;-77
2022/01/21 04:09:30;;;;;;;13.13;1.70;;;2.00;99.90;;;;;;5039800;28;20097;-77
2022/01/21 04:11:56;;;;;;;8.93;1.00;;;2.00;99.90;;;;;;5044318;28;20036;-77
2022/01/21 04:14:23;;;;;;;13.23;1.47;;;2.00;99.90;;;;;;5041688;28;20376;-77
2022/01/21 04:16:49;;;;;;;7.57;1.27;;;2.10;99.90;;;;;;5039541;28;20036;-77
2022/01/21 04:19:15;;;;;;;12.57;1.40;;;2.00;99.90;;;;;;5038113;28;20090;-77
2022/01/21 04:21:42;;;;;;;10.97;1.10;;;2.00;99.90;;;;;;5042127;28;20048;-77
2022/01/21 04:24:11;;;;;;;10.57;1.50;;;1.90;99.90;;;;;;5032658;28;20055;-77
2022/01/21 04:26:40;;;;;;;12.87;1.90;;;1.80;99.90;;;;;;5055371;28;20037;-77
2022/01/21 04:29:08;;;;;;;17.07;1.47;;;1.80;99.90;;;;;;5020121;28;20052;-76
2022/01/21 04:31:50;;;;;;;19.43;1.73;;;1.70;99.90;;;;;;5022307;28;20406;-77
2022/01/21 04:34:18;;;;;;;13.43;1.60;;;1.70;99.90;;;;;;5023877;28;20125;-76
2022/01/21 04:36:46;;;;;;;10.00;1.20;;;1.70;99.90;;;;;;5034154;28;20060;-77
2022/01/21 04:39:22;;;;;;;12.73;1.20;;;1.70;99.90;;;;;;5033630;28;20512;-77
2022/01/21 04:47:18;;;;;;;;;;;1.50;99.90;;;;;;5040417;28;20302;-76
2022/01/21 04:49:45;;;;;;;22.63;2.80;;;1.50;99.90;;;;;;5043027;28;19931;-77
2022/01/21 04:52:13;;;;;;;13.90;1.80;;;1.50;99.90;;;;;;5031086;28;20938;-78
2022/01/21 04:55:11;;;;;;;16.37;2.50;;;1.40;99.90;;;;;;5025343;28;20660;-77
2022/01/21 04:57:38;;;;;;;15.20;1.87;;;1.40;99.90;;;;;;5027881;28;20303;-77
2022/01/21 05:00:06;;;;;;;12.03;2.10;;;1.40;99.90;;;;;;5052250;28;20352;-77
2022/01/21 05:02:34;;;;;;;20.10;2.57;;;1.50;99.90;;;;;;5027780;28;20457;-77
2022/01/21 05:05:00;;;;;;;18.63;2.13;;;1.50;99.90;;;;;;5038177;28;20318;-76
2022/01/21 05:07:29;;;;;;;20.13;2.70;;;1.40;99.90;;;;;;5021643;28;20498;-77
2022/01/21 05:09:54;;;;;;;25.30;2.77;;;1.40;99.90;;;;;;5039497;28;20434;-78
2022/01/21 05:12:23;;;;;;;23.83;2.53;;;1.40;99.90;;;;;;5045358;28;20311;-77
2022/01/21 05:15:07;;;;;;;22.80;2.37;;;1.40;99.90;;;;;;5041952;28;20037;-77
2022/01/21 05:17:41;;;;;;;16.03;2.13;;;1.40;99.90;;;;;;5040621;28;20362;-77
2022/01/21 05:20:09;;;;;;;17.47;2.17;;;1.40;99.90;;;;;;5034128;28;20664;-77
2022/01/21 05:22:55;;;;;;;18.87;2.17;;;1.40;99.90;;;;;;5060700;28;20416;-78
2022/01/21 05:25:22;;;;;;;23.97;2.80;;;1.50;99.90;;;;;;5035183;28;20045;-77
2022/01/21 05:27:54;;;;;;;16.77;2.10;;;1.40;99.90;;;;;;5031534;28;20040;-77
2022/01/21 05:30:20;;;;;;;16.47;2.40;;;1.40;99.90;;;;;;5039968;28;20688;-76
2022/01/21 05:33:04;;;;;;;24.08;2.83;;;1.40;99.90;;;;;;5046835;28;20313;-77
2022/01/21 05:35:48;;;;;;;10.93;1.92;;;1.40;99.90;;;;;;5043012;28;20545;-77
2022/01/21 05:38:34;;;;;;;;;;;1.40;99.90;;;;;;5044533;28;20037;-77
2022/01/21 05:41:26;;;;;;;20.10;3.13;;;1.40;99.90;;;;;;5055118;28;19928;-77
2022/01/21 05:47:22;;;;;;;21.35;1.95;;;1.40;99.90;;;;;;5056096;28;20369;-77
2022/01/21 05:50:19;;;;;;;14.30;1.93;;;1.50;99.90;;;;;;5049389;28;20106;-76
2022/01/21 05:53:04;;;;;;;23.20;1.87;;;1.50;99.90;;;;;;5050070;28;20306;-77
2022/01/21 05:55:49;;;;;;;21.73;2.03;;;1.60;99.90;;;;;;5059241;28;20409;-76
2022/01/21 05:58:44;;;;;;;22.37;2.37;;;1.70;99.90;;;;;;5049611;28;20306;-77
2022/01/21 06:01:09;;;;;;;21.40;1.80;;;1.60;99.90;;;;;;5041266;28;20304;-78
2022/01/21 06:03:35;;;;;;;17.50;2.53;;;1.70;99.90;;;;;;5029706;28;20490;-77
2022/01/21 06:06:01;;;;;;;17.20;2.17;;;1.60;99.90;;;;;;5022981;28;20044;-77
2022/01/21 06:08:27;;;;;;;23.50;3.20;;;1.70;99.90;;;;;;5044129;28;20049;-77
2022/01/21 06:10:54;;;;;;;17.40;2.20;;;1.70;99.90;;;;;;5020824;28;20067;-77
2022/01/21 06:13:20;;;;;;;17.27;2.27;;;1.70;99.90;;;;;;5042409;28;20053;-77
2022/01/21 06:15:47;;;;;;;19.73;2.17;;;1.70;99.90;;;;;;5042141;28;20677;-77
2022/01/21 06:18:12;;;;;;;22.07;2.30;;;1.70;99.90;;;;;;5053577;28;20048;-77
2022/01/21 06:20:38;;;;;;;23.27;2.03;;;1.70;99.90;;;;;;5059503;28;20045;-77
2022/01/21 06:23:04;;;;;;;17.70;2.73;;;1.70;99.90;;;;;;5043935;28;20044;-77
2022/01/21 06:25:30;;;;;;;12.93;1.77;;;1.70;99.90;;;;;;5040182;28;20064;-76
2022/01/21 06:27:57;;;;;;;17.90;3.87;;;1.70;99.90;;;;;;5062712;28;20422;-78
2022/01/21 06:30:22;;;;;;;19.73;2.77;;;1.70;99.90;;;;;;5058543;28;20098;-76
2022/01/21 06:32:48;;;;;;;15.37;3.00;;;1.70;99.90;;;;;;5044473;28;20340;-77
2022/01/21 06:35:14;;;;;;;17.43;2.63;;;1.70;99.90;;;;;;5044335;28;20414;-77
2022/01/21 06:37:40;;;;;;;15.77;2.83;;;1.70;99.90;;;;;;5061548;28;20048;-78
2022/01/21 06:40:08;;;;;;;16.27;2.47;;;1.70;99.90;;;;;;5064980;28;20036;-77
2022/01/21 06:42:34;;;;;;;13.83;1.80;;;1.70;99.90;;;;;;5044487;28;20041;-77
2022/01/21 06:45:02;;;;;;;16.97;2.57;;;1.80;99.90;;;;;;5033019;28;20040;-77
2022/01/21 06:47:29;;;;;;;18.07;2.43;;;1.70;99.90;;;;;;5056378;28;20052;-77
2022/01/21 06:49:58;;;;;;;14.87;2.07;;;1.80;99.90;;;;;;5064122;28;20099;-76
2022/01/21 06:52:25;;;;;;;9.73;1.60;;;1.80;99.90;;;;;;5032563;28;20051;-76
2022/01/21 06:54:51;;;;;;;16.90;2.17;;;1.80;99.90;;;;;;5056204;28;20044;-77
2022/01/21 06:57:16;;;;;;;14.80;1.93;;;1.80;99.90;;;;;;5050137;28;20672;-77
2022/01/21 06:59:42;;;;;;;12.13;1.73;;;1.80;99.90;;;;;;5056967;28;20044;-77
2022/01/21 07:02:09;;;;;;;17.00;2.00;;;1.80;99.90;;;;;;5025644;28;20786;-76
2022/01/21 07:04:35;;;;;;;17.93;1.63;;;1.80;99.90;;;;;;5045113;28;20099;-76
2022/01/21 07:07:01;;;;;;;13.83;1.63;;;1.70;99.90;;;;;;5058316;28;20072;-77
2022/01/21 07:09:26;;;;;;;14.07;2.07;;;1.70;99.90;;;;;;5040969;28;20047;-76
2022/01/21 07:11:52;;;;;;;13.33;1.70;;;1.70;99.90;;;;;;5035106;28;20049;-77
2022/01/21 07:14:18;;;;;;;13.57;1.70;;;1.70;99.90;;;;;;5037431;28;20047;-77
2022/01/21 07:16:44;;;;;;;17.23;2.60;;;1.70;99.90;;;;;;5035500;28;20076;-76
2022/01/21 07:19:11;;;;;;;22.23;1.80;;;1.70;99.90;;;;;;5039701;28;20071;-76
2022/01/21 07:21:37;;;;;;;14.73;2.37;;;1.70;99.90;;;;;;5031081;28;20095;-77
2022/01/21 07:24:03;;;;;;;14.67;2.13;;;1.70;99.90;;;;;;5043369;28;20731;-77
2022/01/21 07:26:29;;;;;;;16.43;2.53;;;1.70;99.90;;;;;;5043272;28;20044;-77
2022/01/21 07:28:55;;;;;;;15.23;2.17;;;1.70;99.90;;;;;;5049802;28;20307;-77
2022/01/21 07:31:21;;;;;;;14.73;2.03;;;1.60;99.90;;;;;;5031602;28;20045;-77
2022/01/21 07:33:46;;;;;;;13.13;2.07;;;1.50;99.90;;;;;;5033488;28;20037;-76
2022/01/21 07:36:13;;;;;;;16.60;2.17;;;1.60;99.90;;;;;;5046275;28;20052;-77
2022/01/21 07:38:41;;;;;;;13.20;1.70;;;1.50;99.90;;;;;;5041500;28;20040;-77
2022/01/21 07:41:07;;;;;;;15.67;2.23;;;1.50;99.90;;;;;;5021927;28;20037;-78
2022/01/21 07:43:33;;;;;;;16.60;1.80;;;1.40;99.90;;;;;;5039598;28;20303;-77
2022/01/21 07:45:59;;;;;;;19.73;2.50;;;1.40;99.90;;;;;;5033755;28;20310;-76
2022/01/21 07:48:25;;;;;;;16.13;2.47;;;1.30;99.90;;;;;;5047282;28;20044;-81
2022/01/21 07:50:50;;;;;;;13.30;3.00;;;1.30;99.90;;;;;;5055284;28;20079;-79
2022/01/21 07:53:17;;;;;;;18.30;3.77;;;1.30;99.90;;;;;;5052015;28;20041;-79
2022/01/21 07:55:44;;;;;;;11.73;3.30;;;1.30;99.90;;;;;;5037894;28;20434;-80
2022/01/21 07:58:10;;;;;;;14.57;2.80;;;1.30;99.90;;;;;;5058195;28;20909;-80
2022/01/21 08:00:36;;;;;;;19.67;3.50;;;1.30;99.90;;;;;;5052144;28;20406;-80
2022/01/21 08:03:02;;;;;;;15.87;2.60;;;1.30;99.90;;;;;;5022331;28;20498;-82
2022/01/21 08:05:31;;;;;;;12.93;1.80;;;1.40;99.90;;;;;;5033669;28;20048;-80
2022/01/21 08:07:57;;;;;;;18.77;2.00;;;1.30;99.90;;;;;;5040390;28;20037;-81
2022/01/21 08:10:24;;;;;;;17.50;1.90;;;1.50;99.90;;;;;;5037332;28;20306;-83
2022/01/21 08:12:50;;;;;;;16.63;3.03;;;1.50;99.90;;;;;;5052498;28;20138;-80
2022/01/21 08:15:16;;;;;;;22.57;3.73;;;1.60;99.90;;;;;;5039082;28;20080;-80
2022/01/21 08:17:42;;;;;;;18.97;2.00;;;1.70;99.90;;;;;;5044494;28;20094;-80
2022/01/21 08:20:09;;;;;;;9.67;1.60;;;1.70;99.90;;;;;;5037188;28;20331;-84
2022/01/21 08:22:35;;;;;;;17.87;2.30;;;1.70;99.90;;;;;;5030256;28;20048;-80
2022/01/21 08:25:00;;;;;;;17.80;2.23;;;1.80;99.90;;;;;;5060336;28;20505;-81
2022/01/21 08:27:28;;;;;;;11.83;2.40;;;1.90;99.90;;;;;;5053422;28;20040;-81
2022/01/21 08:29:53;;;;;;;13.47;2.03;;;2.00;99.90;;;;;;5038161;28;20049;-82
2022/01/21 08:32:20;;;;;;;14.60;1.83;;;2.10;99.90;;;;;;5044816;28;20307;-81
2022/01/21 08:34:47;;;;;;;18.27;1.97;;;2.20;99.90;;;;;;5055934;28;20044;-82
2022/01/21 08:37:13;;;;;;;20.33;2.00;;;2.30;99.90;;;;;;5041940;28;20052;-80
2022/01/21 08:39:39;;;;;;;15.00;2.00;;;2.30;99.90;;;;;;5036659;28;20056;-80
2022/01/21 08:42:06;;;;;;;17.10;2.27;;;2.40;99.90;;;;;;5057821;28;20079;-80
2022/01/21 08:44:33;;;;;;;13.97;2.47;;;2.40;99.90;;;;;;5021390;28;20057;-82
2022/01/21 08:46:59;;;;;;;14.10;1.83;;;2.50;99.90;;;;;;5020111;28;20055;-81
2022/01/21 08:49:24;;;;;;;17.40;3.33;;;2.60;99.90;;;;;;5031795;28;20040;-80
2022/01/21 08:51:53;;;;;;;16.33;2.57;;;2.60;99.90;;;;;;5032258;28;20048;-81
2022/01/21 08:54:20;;;;;;;13.67;2.47;;;2.70;99.90;;;;;;5045404;28;20049;-82
2022/01/21 08:56:47;;;;;;;15.23;1.50;;;2.70;99.90;;;;;;5026347;28;20041;-80
2022/01/21 08:59:13;;;;;;;11.13;2.10;;;2.80;99.90;;;;;;5044486;28;20990;-81
2022/01/21 09:01:43;;;;;;;13.50;2.00;;;2.90;99.90;;;;;;5028518;28;20040;-81
2022/01/21 09:04:08;;;;;;;16.90;2.07;;;3.10;99.90;;;;;;5061813;28;20044;-83
2022/01/21 09:06:34;;;;;;;16.57;1.80;;;3.20;99.90;;;;;;5044590;28;20537;-81
2022/01/21 09:09:03;;;;;;;14.73;2.00;;;3.30;99.90;;;;;;5043913;28;20044;-83
2022/01/21 09:11:29;;;;;;;15.97;3.13;;;3.40;99.90;;;;;;5043825;28;20041;-81
2022/01/21 09:13:56;;;;;;;9.27;1.90;;;3.40;99.90;;;;;;5043428;28;20572;-80
2022/01/21 09:16:23;;;;;;;20.37;2.03;;;3.40;99.90;;;;;;5044405;28;20048;-81
2022/01/21 09:18:54;;;;;;;15.70;2.17;;;3.40;99.90;;;;;;5030537;28;20087;-84
2022/01/21 09:21:22;;;;;;;13.30;2.37;;;3.30;99.90;;;;;;5033199;28;20055;-81
2022/01/21 09:23:49;;;;;;;15.07;2.10;;;3.30;99.90;;;;;;5058887;28;20041;-80
2022/01/21 09:26:16;;;;;;;17.70;2.80;;;3.30;99.90;;;;;;5039656;28;20164;-85
2022/01/21 09:28:41;;;;;;;16.97;2.67;;;3.30;99.90;;;;;;5041048;28;20050;-81
2022/01/21 09:31:07;;;;;;;21.60;2.50;;;3.30;99.90;;;;;;5032681;28;20049;-86
2022/01/21 09:33:33;;;;;;;11.37;2.60;;;3.30;99.90;;;;;;5045088;28;20132;-80
2022/01/21 09:36:00;;;;;;;20.50;3.23;;;3.40;99.90;;;;;;5039168;28;20048;-83
2022/01/21 09:38:26;;;;;;;19.57;2.73;;;3.40;99.90;;;;;;5031801;28;20441;-82
2022/01/21 09:40:53;;;;;;;16.80;2.47;;;3.50;99.90;;;;;;5049925;28;20044;-80
2022/01/21 09:43:20;;;;;;;16.93;2.40;;;3.50;99.90;;;;;;5042990;28;20045;-80
2022/01/21 09:45:47;;;;;;;22.27;3.33;;;3.60;99.90;;;;;;5044417;28;20464;-81
2022/01/21 09:48:20;;;;;;;14.10;2.23;;;3.70;99.90;;;;;;5041774;28;20049;-80
2022/01/21 09:50:47;;;;;;;22.20;2.50;;;3.70;99.90;;;;;;5041411;28;20040;-80
2022/01/21 09:53:15;;;;;;;26.23;2.37;;;3.80;99.90;;;;;;5061233;28;20049;-81
2022/01/21 09:55:41;;;;;;;17.67;2.43;;;3.90;99.90;;;;;;5030251;28;20083;-81
2022/01/21 09:58:08;;;;;;;26.60;3.60;;;4.00;99.90;;;;;;5041079;28;20049;-81
2022/01/21 10:00:34;;;;;;;29.83;3.80;;;4.00;99.90;;;;;;5031354;28;20103;-81
2022/01/21 10:03:03;;;;;;;20.80;2.90;;;4.10;99.90;;;;;;5046029;28;20037;-86
2022/01/21 10:05:29;;;;;;;19.33;3.33;;;4.10;99.90;;;;;;5062234;28;20044;-81
2022/01/21 10:07:58;;;;;;;26.30;3.30;;;4.30;99.90;;;;;;5025266;28;20048;-80
2022/01/21 10:10:26;;;;;;;16.97;2.50;;;4.70;99.90;;;;;;5030257;28;20549;-89
2022/01/21 10:13:01;;;;;;;13.30;2.10;;;5.90;99.90;;;;;;5041495;28;20095;-81
2022/01/21 10:15:27;;;;;;;12.77;1.90;;;6.60;99.90;;;;;;5034552;28;20052;-83
2022/01/21 10:18:04;;;;;;;10.63;2.13;;;6.90;99.90;;;;;;5062200;28;20139;-81
2022/01/21 10:20:30;;;;;;;9.87;2.13;;;7.10;99.90;;;;;;5044317;28;20414;-81
2022/01/21 10:22:58;;;;;;;10.97;2.10;;;7.20;99.90;;;;;;5042172;28;20041;-82
2022/01/21 10:25:25;;;;;;;13.00;2.20;;;7.10;99.90;;;;;;5042898;28;20413;-82
2022/01/21 10:27:51;;;;;;;14.47;2.00;;;7.00;99.90;;;;;;5044961;28;20064;-81
2022/01/21 10:30:25;;;;;;;15.23;2.07;;;6.80;99.90;;;;;;5029346;28;20689;-82
2022/01/21 10:32:51;;;;;;;11.75;1.83;;;6.60;99.90;;;;;;5020578;28;20072;-82
2022/01/21 10:35:22;;;;;;;17.27;1.70;;;6.40;99.90;;;;;;5044943;28;20076;-82
2022/01/21 10:37:49;;;;;;;15.90;1.97;;;6.30;99.90;;;;;;5036858;28;20101;-82
2022/01/21 10:40:16;;;;;;;13.97;1.60;;;6.20;99.90;;;;;;5042004;28;20083;-82
2022/01/21 10:42:45;;;;;;;16.30;1.97;;;6.10;99.90;;;;;;5046336;28;20040;-82
2022/01/21 10:45:11;;;;;;;9.90;2.07;;;6.00;99.90;;;;;;5045210;28;20056;-82
2022/01/21 10:47:39;;;;;;;14.30;1.90;;;6.00;99.90;;;;;;5035041;28;20041;-82
2022/01/21 10:50:08;;;;;;;14.30;2.10;;;5.90;99.90;;;;;;5031185;28;20670;-82
2022/01/21 10:52:36;;;;;;;18.87;1.97;;;5.80;99.90;;;;;;5044148;28;20063;-81
2022/01/21 10:55:03;;;;;;;20.10;2.83;;;5.80;99.90;;;;;;5035239;28;20124;-84
2022/01/21 10:57:30;;;;;;;18.43;2.70;;;5.80;99.90;;;;;;5028809;28;20052;-82
2022/01/21 11:00:00;;;;;;;19.97;2.63;;;5.90;99.90;;;;;;5043574;28;20422;-82
2022/01/21 11:02:33;;;;;;;13.90;2.37;;;6.00;99.90;;;;;;5043726;28;20039;-81
2022/01/21 11:05:01;;;;;;;20.47;2.47;;;6.20;99.90;;;;;;5041829;28;21356;-81
2022/01/21 11:07:48;;;;;;;26.37;2.67;;;6.40;99.90;;;;;;5037454;28;20510;-81
2022/01/21 11:10:43;;;;;;;24.03;3.30;;;6.70;99.90;;;;;;5039391;28;20051;-83
2022/01/21 11:13:30;;;;;;;18.17;2.43;;;6.90;99.90;;;;;;5044373;28;20049;-82
2022/01/21 11:15:59;;;;;;;18.90;2.33;;;6.80;99.90;;;;;;5044607;28;20048;-84
2022/01/21 11:18:29;;;;;;;15.90;3.13;;;6.60;99.90;;;;;;5056460;28;20139;-82
2022/01/21 11:21:04;;;;;;;14.20;2.53;;;6.60;99.90;;;;;;5042967;28;20303;-82
2022/01/21 11:23:32;;;;;;;21.93;3.03;;;6.60;99.90;;;;;;5046293;28;20044;-83
2022/01/21 11:26:01;;;;;;;16.90;2.33;;;6.60;99.90;;;;;;5049091;28;20044;-82
2022/01/21 11:28:35;;;;;;;16.07;2.53;;;6.60;99.90;;;;;;5031363;28;21006;-82
2022/01/21 11:31:04;;;;;;;17.67;2.67;;;6.60;99.90;;;;;;5048648;28;20099;-83
2022/01/21 11:33:29;;;;;;;16.43;2.70;;;6.50;99.90;;;;;;5043496;28;20048;-82
2022/01/21 11:35:55;;;;;;;22.70;2.97;;;6.50;99.90;;;;;;5032735;28;20426;-82
2022/01/21 11:38:24;;;;;;;15.37;2.43;;;6.40;99.90;;;;;;5041590;28;20055;-83
2022/01/21 11:40:51;;;;;;;20.33;3.13;;;6.40;99.90;;;;;;5041110;28;20144;-82
2022/01/21 11:43:18;;;;;;;24.53;3.17;;;6.30;99.90;;;;;;5052571;28;20094;-82
2022/01/21 11:51:00;;;;;;;21.43;2.77;;;6.50;99.90;;;;;;5052707;28;20502;-81
2022/01/21 11:53:46;;;;;;;15.90;3.07;;;6.70;99.90;;;;;;5036736;28;20055;-82
2022/01/21 11:56:31;;;;;;;17.90;3.10;;;7.00;99.90;;;;;;5017547;28;20041;-83
2022/01/21 11:59:05;;;;;;;23.27;4.00;;;7.10;99.90;;;;;;5040550;28;20536;-81
2022/01/21 12:01:33;;;;;;;24.07;4.10;;;7.10;99.90;;;;;;5028593;28;20066;-82
2022/01/21 12:04:03;;;;;;;23.27;3.53;;;7.10;99.90;;;;;;5067522;28;20048;-82
2022/01/21 12:06:34;;;;;;;20.80;3.83;;;7.10;99.90;;;;;;5055231;28;20045;-82
2022/01/21 12:09:02;;;;;;;25.57;3.67;;;7.10;99.90;;;;;;5053423;28;20076;-83
2022/01/21 12:11:30;;;;;;;19.30;3.70;;;7.10;99.90;;;;;;5018150;28;20110;-82
2022/01/21 12:13:56;;;;;;;30.63;3.87;;;7.00;99.90;;;;;;5047942;28;20060;-82
2022/01/21 12:16:47;;;;;;;23.37;2.80;;;7.00;99.90;;;;;;5020958;28;20102;-82
2022/01/21 12:19:26;;;;;;;19.23;3.23;;;7.00;99.90;;;;;;5030033;28;20064;-82
2022/01/21 12:21:53;;;;;;;13.53;2.23;;;6.90;99.90;;;;;;5043353;28;20053;-82
2022/01/21 12:24:51;;;;;;;17.13;2.60;;;7.00;99.90;;;;;;5023366;28;20049;-80
2022/01/21 12:27:17;;;;;;;13.73;2.10;;;7.00;99.90;;;;;;5044580;28;20047;-83
2022/01/21 12:29:43;;;;;;;16.40;2.97;;;6.90;99.90;;;;;;5029370;28;20137;-80
2022/01/21 12:32:28;;;;;;;22.67;2.03;;;6.90;99.90;;;;;;5038753;28;20052;-81
2022/01/21 12:35:16;;;;;;;12.53;2.83;;;6.90;99.90;;;;;;5056659;28;20197;-80
2022/01/21 12:40:55;;;;;;;16.67;2.80;;;6.90;99.90;;;;;;5034549;28;20048;-81
2022/01/21 12:43:41;;;;;;;18.27;2.07;;;6.90;99.90;;;;;;5053024;28;20044;-81
2022/01/21 12:46:09;;;;;;;13.03;1.73;;;6.90;99.90;;;;;;5040886;28;20041;-81
2022/01/21 12:48:36;;;;;;;13.27;2.10;;;7.00;99.90;;;;;;5039622;28;20179;-82
2022/01/21 12:56:45;;;;;;;12.53;1.87;;;6.90;99.90;;;;;;5054933;28;20475;-81
2022/01/21 12:59:16;;;;;;;12.23;1.80;;;7.10;99.90;;;;;;5038790;28;20053;-81
2022/01/21 13:01:42;;;;;;;20.33;2.23;;;7.10;99.90;;;;;;5056936;28;20036;-83
2022/01/21 13:04:31;;;;;;;14.33;1.90;;;7.10;99.90;;;;;;5044513;28;20041;-82
2022/01/21 13:07:06;;;;;;;13.60;2.07;;;7.20;99.90;;;;;;5039216;28;20041;-82
2022/01/21 13:10:01;;;;;;;12.10;1.63;;;7.10;99.90;;;;;;5040696;28;20560;-80
2022/01/21 13:12:46;;;;;;;14.70;1.87;;;7.10;99.90;;;;;;5032207;28;20045;-81
2022/01/21 13:15:13;;;;;;;14.93;2.10;;;7.10;99.90;;;;;;5033883;28;20048;-82
2022/01/21 13:17:39;;;;;;;12.43;1.80;;;7.10;99.90;;;;;;5040841;28;20041;-82
2022/01/21 13:20:06;;;;;;;13.73;2.37;;;7.10;99.90;;;;;;5038499;28;20498;-82
2022/01/21 13:22:37;;;;;;;13.63;2.23;;;7.10;99.90;;;;;;5055660;28;20501;-82
2022/01/21 13:25:10;;;;;;;12.77;2.07;;;7.10;99.90;;;;;;5012563;28;20049;-81
2022/01/21 13:27:45;;;;;;;20.97;2.97;;;7.10;99.90;;;;;;5050171;28;20534;-82
2022/01/21 13:30:13;;;;;;;17.57;1.87;;;7.20;99.90;;;;;;5024973;28;20044;-80
2022/01/21 13:32:38;;;;;;;18.27;2.43;;;7.20;99.90;;;;;;5024108;28;20115;-82
2022/01/21 13:35:10;;;;;;;19.67;2.77;;;7.10;99.90;;;;;;5041135;28;20044;-82
2022/01/21 13:37:38;;;;;;;22.57;3.57;;;7.10;99.90;;;;;;5046065;28;20489;-82
2022/01/21 13:40:07;;;;;;;19.57;2.83;;;7.10;99.90;;;;;;5057131;28;20115;-81
2022/01/21 13:42:34;;;;;;;17.80;2.47;;;7.10;99.90;;;;;;5046456;28;20037;-82
2022/01/21 13:45:05;;;;;;;17.97;2.13;;;7.10;99.90;;;;;;5047319;28;20072;-82
2022/01/21 13:47:33;;;;;;;16.80;2.37;;;7.10;99.90;;;;;;5056271;28;20119;-81
2022/01/21 13:50:04;;;;;;;18.83;2.97;;;7.10;99.90;;;;;;5062973;28;20048;-80
2022/01/21 13:52:40;;;;;;;14.30;1.83;;;7.00;99.90;;;;;;5046590;28;20041;-81